createdAt,value
2023-03-27T00:00:11.834Z,992.62
2023-03-27T00:00:43.364Z,992.41
2023-03-27T00:01:15.410Z,992.41
2023-03-27T00:01:47.473Z,992.62
2023-03-27T00:02:19.403Z,992.62
2023-03-27T00:02:51.867Z,992.62
2023-03-27T00:03:23.406Z,992.72
2023-03-27T00:03:55.367Z,992.72
2023-03-27T00:04:27.196Z,992.62
2023-03-27T00:04:59.231Z,992.62
2023-03-27T00:05:31.348Z,992.62
2023-03-27T00:06:03.269Z,992.62
2023-03-27T00:06:35.081Z,992.72
2023-03-27T00:07:07.314Z,992.72
2023-03-27T00:07:39.151Z,992.82
2023-03-27T00:08:11.246Z,992.82
2023-03-27T00:08:42.961Z,992.72
2023-03-27T00:09:15.028Z,992.72
2023-03-27T00:09:47.092Z,992.62
2023-03-27T00:10:19.124Z,992.72
2023-03-27T00:10:51.036Z,992.72
2023-03-27T00:11:22.912Z,992.72
2023-03-27T00:11:54.973Z,992.72
2023-03-27T00:12:26.963Z,992.72
2023-03-27T00:12:58.885Z,992.72
2023-03-27T00:13:31.002Z,992.72
2023-03-27T00:14:02.852Z,992.72
2023-03-27T00:14:34.880Z,992.72
2023-03-27T00:15:07.019Z,992.72
2023-03-27T00:15:38.966Z,992.82
2023-03-27T00:16:10.917Z,992.82
2023-03-27T00:16:43.321Z,992.82
2023-03-27T00:17:14.800Z,992.82
2023-03-27T00:17:46.900Z,992.72
2023-03-27T00:18:18.706Z,992.82
2023-03-27T00:18:50.777Z,992.82
2023-03-27T00:19:22.549Z,992.82
2023-03-27T00:19:54.632Z,992.82
2023-03-27T00:20:26.596Z,992.82
2023-03-27T00:20:58.691Z,992.82
2023-03-27T00:21:30.925Z,992.72
2023-03-27T00:22:02.463Z,992.72
2023-03-27T00:22:34.473Z,992.92
2023-03-27T00:23:06.499Z,992.92
2023-03-27T00:23:38.552Z,992.92
2023-03-27T00:24:10.501Z,992.92
2023-03-27T00:24:42.384Z,993.02
2023-03-27T00:25:14.431Z,993.02
2023-03-27T00:25:46.350Z,992.92
2023-03-27T00:26:18.407Z,992.92
2023-03-27T00:26:50.386Z,992.92
2023-03-27T00:27:22.359Z,993.02
2023-03-27T00:27:54.409Z,993.02
2023-03-27T00:28:26.162Z,993.02
2023-03-27T00:28:58.227Z,993.02
2023-03-27T00:29:30.264Z,992.92
2023-03-27T00:30:02.392Z,992.92
2023-03-27T00:30:34.141Z,993.12
2023-03-27T00:31:06.121Z,993.12
2023-03-27T00:31:38.175Z,993.02
2023-03-27T00:32:10.190Z,993.02
2023-03-27T00:32:42.095Z,993.23
2023-03-27T00:33:14.101Z,993.23
2023-03-27T00:33:46.074Z,993.02
2023-03-27T00:34:18.128Z,992.92
2023-03-27T00:34:49.919Z,992.92
2023-03-27T00:35:21.994Z,993.12
2023-03-27T00:35:53.997Z,993.12
2023-03-27T00:36:25.988Z,993.02
2023-03-27T00:36:57.791Z,993.02
2023-03-27T00:37:29.846Z,993.12
2023-03-27T00:38:01.921Z,993.12
2023-03-27T00:38:34.085Z,993.23
2023-03-27T00:39:05.711Z,993.23
2023-03-27T00:39:37.764Z,993.33
2023-03-27T00:40:09.840Z,993.33
2023-03-27T00:40:41.868Z,993.12
2023-03-27T00:41:13.641Z,993.12
2023-03-27T00:41:45.669Z,993.33
2023-03-27T00:42:17.719Z,993.33
2023-03-27T00:42:49.809Z,993.33
2023-03-27T00:43:21.559Z,993.33
2023-03-27T00:43:53.563Z,993.33
2023-03-27T00:44:25.643Z,993.33
2023-03-27T00:44:57.631Z,993.33
2023-03-27T00:45:29.581Z,993.33
2023-03-27T00:46:01.584Z,993.33
2023-03-27T00:46:33.537Z,993.33
2023-03-27T00:47:05.599Z,993.33
2023-03-27T00:47:37.462Z,993.53
2023-03-27T00:48:09.368Z,993.53
2023-03-27T00:48:41.431Z,993.53
2023-03-27T00:49:13.548Z,993.53
2023-03-27T00:49:45.273Z,993.53
2023-03-27T00:50:17.327Z,993.43
2023-03-27T00:50:49.333Z,993.43
2023-03-27T00:51:21.436Z,993.53
2023-03-27T00:51:53.382Z,993.53
2023-03-27T00:52:25.200Z,993.43
2023-03-27T00:52:57.201Z,993.43
2023-03-27T00:53:29.286Z,993.53
2023-03-27T00:54:01.208Z,993.53
2023-03-27T00:54:33.827Z,993.53
2023-03-27T00:55:05.194Z,993.53
2023-03-27T00:55:37.175Z,993.53
2023-03-27T00:56:08.993Z,993.53
2023-03-27T00:56:41.090Z,993.63
2023-03-27T00:57:13.049Z,993.63
2023-03-27T00:57:45.494Z,993.73
2023-03-27T00:58:17.107Z,993.73
2023-03-27T00:58:48.945Z,993.63
2023-03-27T00:59:21.170Z,993.84
2023-03-27T00:59:53.009Z,993.84
2023-03-27T01:00:25.149Z,993.63
2023-03-27T01:00:57.233Z,993.63
2023-03-27T01:01:28.961Z,993.63
2023-03-27T01:02:01.077Z,993.63
2023-03-27T01:02:33.042Z,993.84
2023-03-27T01:03:04.889Z,993.84
2023-03-27T01:03:36.934Z,993.73
2023-03-27T01:04:08.807Z,993.73
2023-03-27T01:04:40.997Z,993.84
2023-03-27T01:05:12.665Z,993.84
2023-03-27T01:05:44.693Z,993.63
2023-03-27T01:06:16.816Z,993.63
2023-03-27T01:06:48.730Z,993.73
2023-03-27T01:07:20.709Z,993.63
2023-03-27T01:08:01.174Z,993.63
2023-03-27T01:08:24.610Z,993.43
2023-03-27T01:08:56.598Z,993.43
2023-03-27T01:09:28.453Z,993.73
2023-03-27T01:10:00.742Z,993.73
2023-03-27T01:10:32.520Z,993.84
2023-03-27T01:11:04.548Z,993.84
2023-03-27T01:11:36.358Z,993.63
2023-03-27T01:12:08.390Z,993.63
2023-03-27T01:12:40.513Z,993.63
2023-03-27T01:13:12.480Z,993.63
2023-03-27T01:13:44.276Z,993.73
2023-03-27T01:14:16.332Z,993.73
2023-03-27T01:14:48.306Z,993.84
2023-03-27T01:15:20.526Z,993.73
2023-03-27T01:15:52.196Z,993.73
2023-03-27T01:16:24.191Z,993.63
2023-03-27T01:16:56.227Z,993.63
2023-03-27T01:17:28.246Z,993.84
2023-03-27T01:18:00.120Z,993.84
2023-03-27T01:18:32.080Z,993.84
2023-03-27T01:19:04.112Z,993.84
2023-03-27T01:19:36.196Z,993.63
2023-03-27T01:20:08.152Z,993.63
2023-03-27T01:20:40.111Z,993.73
2023-03-27T01:21:12.041Z,993.73
2023-03-27T01:21:44.099Z,993.73
2023-03-27T01:22:15.901Z,993.73
2023-03-27T01:22:47.907Z,993.63
2023-03-27T01:23:36.235Z,993.94
2023-03-27T01:23:59.530Z,993.94
2023-03-27T01:24:23.783Z,993.94
2023-03-27T01:24:55.816Z,993.94
2023-03-27T01:25:27.879Z,993.73
2023-03-27T01:25:59.901Z,993.73
2023-03-27T01:26:36.435Z,993.84
2023-03-27T01:27:03.843Z,993.84
2023-03-27T01:27:35.776Z,993.94
2023-03-27T01:28:07.802Z,993.94
2023-03-27T01:28:39.843Z,993.84
2023-03-27T01:29:11.639Z,993.84
2023-03-27T01:29:43.713Z,994.04
2023-03-27T01:30:15.807Z,994.04
2023-03-27T01:30:47.745Z,993.94
2023-03-27T01:31:19.619Z,993.94
2023-03-27T01:31:51.671Z,993.94
2023-03-27T01:32:23.647Z,993.94
2023-03-27T01:32:55.673Z,993.94
2023-03-27T01:33:27.478Z,993.94
2023-03-27T01:33:59.588Z,993.94
2023-03-27T01:34:31.490Z,994.14
2023-03-27T01:35:03.747Z,994.14
2023-03-27T01:35:35.489Z,994.04
2023-03-27T01:36:07.393Z,994.04
2023-03-27T01:36:39.448Z,994.14
2023-03-27T01:37:11.466Z,994.14
2023-03-27T01:37:43.288Z,994.14
2023-03-27T01:38:15.418Z,994.14
2023-03-27T01:38:47.284Z,994.21
2023-03-27T01:39:19.350Z,994.14
2023-03-27T01:39:51.243Z,994.14
2023-03-27T01:40:23.249Z,994.21
2023-03-27T01:40:55.600Z,994.21
2023-03-27T01:41:27.268Z,994.21
2023-03-27T01:41:59.110Z,994.21
2023-03-27T01:42:31.181Z,994.21
2023-03-27T01:43:03.137Z,994.21
2023-03-27T01:43:35.155Z,994.31
2023-03-27T01:44:06.992Z,994.31
2023-03-27T01:44:44.110Z,994.14
2023-03-27T01:45:11.424Z,994.14
2023-03-27T01:45:43.125Z,994.21
2023-03-27T01:46:15.008Z,994.21
2023-03-27T01:46:46.945Z,994.31
2023-03-27T01:47:19.006Z,994.31
2023-03-27T01:47:51.265Z,994.31
2023-03-27T01:48:22.788Z,994.41
2023-03-27T01:48:54.812Z,994.41
2023-03-27T01:49:26.912Z,994.41
2023-03-27T01:49:59.116Z,994.41
2023-03-27T01:50:30.847Z,994.41
2023-03-27T01:51:02.741Z,994.41
2023-03-27T01:51:34.863Z,994.21
2023-03-27T01:52:06.792Z,994.21
2023-03-27T01:52:38.605Z,994.51
2023-03-27T01:53:10.802Z,994.51
2023-03-27T01:53:42.757Z,994.31
2023-03-27T01:54:14.737Z,994.31
2023-03-27T01:54:46.562Z,994.51
2023-03-27T01:55:18.569Z,994.31
2023-03-27T01:55:50.832Z,994.31
2023-03-27T01:56:22.636Z,994.41
2023-03-27T01:56:54.473Z,994.41
2023-03-27T01:57:26.467Z,994.51
2023-03-27T01:57:58.484Z,994.51
2023-03-27T01:58:30.660Z,994.51
2023-03-27T01:59:02.517Z,994.51
2023-03-27T01:59:34.352Z,994.51
2023-03-27T02:00:17.988Z,994.51
2023-03-27T02:00:51.056Z,994.41
2023-03-27T02:01:10.846Z,994.41
2023-03-27T02:01:42.349Z,994.41
2023-03-27T02:02:14.341Z,994.41
2023-03-27T02:02:46.346Z,994.41
2023-03-27T02:03:18.335Z,994.51
2023-03-27T02:03:50.228Z,994.51
2023-03-27T02:04:22.223Z,994.51
2023-03-27T02:04:54.291Z,994.51
2023-03-27T02:05:26.257Z,994.51
2023-03-27T02:05:58.075Z,994.51
2023-03-27T02:06:30.266Z,994.61
2023-03-27T02:07:02.353Z,994.61
2023-03-27T02:07:34.174Z,994.72
2023-03-27T02:08:06.019Z,994.72
2023-03-27T02:08:38.017Z,994.61
2023-03-27T02:09:10.062Z,994.61
2023-03-27T02:09:42.511Z,994.51
2023-03-27T02:10:13.943Z,994.51
2023-03-27T02:10:45.904Z,994.72
2023-03-27T02:11:17.958Z,994.51
2023-03-27T02:11:49.985Z,994.51
2023-03-27T02:12:21.792Z,994.61
2023-03-27T02:12:53.850Z,994.61
2023-03-27T02:13:25.897Z,994.82
2023-03-27T02:13:57.873Z,994.82
2023-03-27T02:14:29.775Z,994.72
2023-03-27T02:15:24.200Z,994.72
2023-03-27T02:15:33.773Z,994.72
2023-03-27T02:16:05.841Z,994.72
2023-03-27T02:16:37.684Z,994.82
2023-03-27T02:17:09.651Z,994.82
2023-03-27T02:17:41.724Z,994.82
2023-03-27T02:18:13.817Z,994.82
2023-03-27T02:18:45.507Z,994.82
2023-03-27T02:19:17.618Z,994.72
2023-03-27T02:19:49.657Z,994.72
2023-03-27T02:20:21.697Z,994.72
2023-03-27T02:20:53.666Z,994.72
2023-03-27T02:21:25.465Z,994.82
2023-03-27T02:21:57.843Z,994.82
2023-03-27T02:22:38.105Z,994.82
2023-03-27T02:23:01.546Z,994.82
2023-03-27T02:23:33.465Z,994.82
2023-03-27T02:24:05.450Z,994.82
2023-03-27T02:24:37.360Z,994.82
2023-03-27T02:25:09.314Z,994.82
2023-03-27T02:25:41.398Z,994.92
2023-03-27T02:26:13.368Z,994.92
2023-03-27T02:26:45.398Z,994.92
2023-03-27T02:27:17.209Z,994.92
2023-03-27T02:27:49.261Z,994.82
2023-03-27T02:28:21.283Z,994.82
2023-03-27T02:28:53.255Z,994.82
2023-03-27T02:29:25.128Z,995.02
2023-03-27T02:29:57.456Z,995.02
2023-03-27T02:30:29.278Z,994.82
2023-03-27T02:31:05.718Z,994.82
2023-03-27T02:31:34.880Z,995.02
2023-03-27T02:32:05.110Z,995.02
2023-03-27T02:32:37.267Z,995.02
2023-03-27T02:33:08.999Z,995.02
2023-03-27T02:33:41.082Z,995.02
2023-03-27T02:34:13.018Z,995.02
2023-03-27T02:34:45.015Z,995.02
2023-03-27T02:35:16.849Z,995.02
2023-03-27T02:35:48.864Z,995.12
2023-03-27T02:36:20.992Z,995.02
2023-03-27T02:36:52.924Z,995.02
2023-03-27T02:37:24.717Z,995.12
2023-03-27T02:37:56.821Z,995.12
2023-03-27T02:38:28.817Z,995.12
2023-03-27T02:39:01.057Z,995.12
2023-03-27T02:39:32.642Z,995.12
2023-03-27T02:40:04.809Z,995.12
2023-03-27T02:40:39.921Z,995.12
2023-03-27T02:41:09.230Z,995.12
2023-03-27T02:41:40.698Z,995.12
2023-03-27T02:42:12.616Z,995.12
2023-03-27T02:42:44.613Z,995.22
2023-03-27T02:43:16.679Z,995.22
2023-03-27T02:43:48.479Z,995.12
2023-03-27T02:44:20.585Z,995.12
2023-03-27T02:44:52.582Z,995.12
2023-03-27T02:45:24.689Z,995.33
2023-03-27T02:45:56.470Z,995.33
2023-03-27T02:46:28.543Z,995.12
2023-03-27T02:47:00.615Z,995.12
2023-03-27T02:47:32.495Z,995.12
2023-03-27T02:48:04.345Z,995.12
2023-03-27T02:48:36.341Z,995.33
2023-03-27T02:49:08.356Z,995.33
2023-03-27T02:49:40.549Z,995.33
2023-03-27T02:50:12.262Z,995.33
2023-03-27T02:50:44.242Z,995.33
2023-03-27T02:51:16.281Z,995.33
2023-03-27T02:51:48.281Z,995.43
2023-03-27T02:52:20.161Z,995.33
2023-03-27T02:52:52.149Z,995.33
2023-03-27T02:53:24.188Z,995.43
2023-03-27T02:53:56.346Z,995.43
2023-03-27T02:54:28.106Z,995.43
2023-03-27T02:55:00.136Z,995.43
2023-03-27T02:55:32.137Z,995.63
2023-03-27T02:56:04.210Z,995.63
2023-03-27T02:56:35.990Z,995.53
2023-03-27T02:57:08.040Z,995.53
2023-03-27T02:57:40.047Z,995.63
2023-03-27T02:58:12.058Z,995.63
2023-03-27T02:58:43.891Z,995.83
2023-03-27T02:59:15.876Z,995.83
2023-03-27T02:59:47.934Z,995.53
2023-03-27T03:00:20.138Z,995.63
2023-03-27T03:00:51.792Z,995.63
2023-03-27T03:01:23.812Z,995.53
2023-03-27T03:01:55.892Z,995.53
2023-03-27T03:02:27.910Z,995.63
2023-03-27T03:02:59.871Z,995.63
2023-03-27T03:03:31.702Z,995.63
2023-03-27T03:04:03.898Z,995.63
2023-03-27T03:04:35.753Z,995.63
2023-03-27T03:05:07.586Z,995.63
2023-03-27T03:05:39.678Z,995.73
2023-03-27T03:06:11.705Z,995.73
2023-03-27T03:06:43.653Z,995.63
2023-03-27T03:07:15.505Z,995.63
2023-03-27T03:07:47.538Z,995.83
2023-03-27T03:08:19.560Z,995.83
2023-03-27T03:08:51.551Z,995.83
2023-03-27T03:09:23.411Z,995.94
2023-03-27T03:09:55.459Z,995.94
2023-03-27T03:10:27.446Z,995.94
2023-03-27T03:10:59.517Z,995.94
2023-03-27T03:11:31.489Z,995.94
2023-03-27T03:12:03.384Z,995.94
2023-03-27T03:12:35.376Z,995.83
2023-03-27T03:13:07.454Z,995.83
2023-03-27T03:13:39.276Z,996.14
2023-03-27T03:14:11.361Z,996.14
2023-03-27T03:14:43.316Z,995.83
2023-03-27T03:15:15.439Z,995.83
2023-03-27T03:15:48.395Z,996.04
2023-03-27T03:16:19.302Z,996.04
2023-03-27T03:16:51.392Z,996.04
2023-03-27T03:17:23.254Z,996.04
2023-03-27T03:17:55.485Z,996.04
2023-03-27T03:18:27.075Z,995.94
2023-03-27T03:18:59.098Z,995.94
2023-03-27T03:19:31.313Z,995.94
2023-03-27T03:20:03.075Z,995.94
2023-03-27T03:20:35.179Z,996.04
2023-03-27T03:21:06.998Z,996.04
2023-03-27T03:21:39.087Z,996.04
2023-03-27T03:22:11.096Z,996.04
2023-03-27T03:22:42.893Z,996.04
2023-03-27T03:23:14.952Z,996.04
2023-03-27T03:23:57.622Z,995.94
2023-03-27T03:24:18.802Z,996.04
2023-03-27T03:24:50.958Z,996.04
2023-03-27T03:25:22.886Z,996.04
2023-03-27T03:25:54.856Z,996.04
2023-03-27T03:26:26.747Z,996.14
2023-03-27T03:26:58.704Z,996.14
2023-03-27T03:27:30.911Z,996.14
2023-03-27T03:28:02.798Z,996.14
2023-03-27T03:28:34.620Z,996.14
2023-03-27T03:29:06.668Z,996.14
2023-03-27T03:29:38.790Z,996.04
2023-03-27T03:30:11.206Z,996.04
2023-03-27T03:30:42.565Z,996.24
2023-03-27T03:31:14.567Z,996.24
2023-03-27T03:31:46.611Z,996.24
2023-03-27T03:32:18.625Z,996.31
2023-03-27T03:32:50.543Z,996.31
2023-03-27T03:33:22.453Z,996.24
2023-03-27T03:33:54.475Z,996.24
2023-03-27T03:34:26.515Z,996.24
2023-03-27T03:34:58.345Z,996.24
2023-03-27T03:35:30.451Z,996.24
2023-03-27T03:36:02.491Z,996.24
2023-03-27T03:36:34.421Z,996.24
2023-03-27T03:37:06.348Z,996.24
2023-03-27T03:37:38.304Z,996.24
2023-03-27T03:38:10.420Z,996.24
2023-03-27T03:38:42.299Z,996.24
2023-03-27T03:39:14.481Z,996.24
2023-03-27T03:39:46.166Z,996.24
2023-03-27T03:40:18.209Z,996.31
2023-03-27T03:40:50.292Z,996.31
2023-03-27T03:41:22.108Z,996.31
2023-03-27T03:41:54.171Z,996.31
2023-03-27T03:42:26.138Z,996.24
2023-03-27T03:42:58.144Z,996.24
2023-03-27T03:43:29.971Z,996.24
2023-03-27T03:44:02.043Z,996.24
2023-03-27T03:44:34.032Z,996.31
2023-03-27T03:45:06.350Z,996.31
2023-03-27T03:45:37.961Z,996.41
2023-03-27T03:46:10.018Z,996.41
2023-03-27T03:46:41.953Z,996.41
2023-03-27T03:47:13.963Z,996.41
2023-03-27T03:47:45.841Z,996.31
2023-03-27T03:48:17.841Z,996.41
2023-03-27T03:48:49.852Z,996.41
2023-03-27T03:49:21.931Z,996.31
2023-03-27T03:49:53.725Z,996.31
2023-03-27T03:50:25.848Z,996.51
2023-03-27T03:50:58.123Z,996.51
2023-03-27T03:51:29.840Z,996.61
2023-03-27T03:52:03.471Z,996.61
2023-03-27T03:52:33.657Z,996.61
2023-03-27T03:53:05.665Z,996.61
2023-03-27T03:53:37.734Z,996.51
2023-03-27T03:54:09.652Z,996.51
2023-03-27T03:54:41.606Z,996.71
2023-03-27T03:55:13.658Z,996.71
2023-03-27T03:55:45.444Z,996.71
2023-03-27T03:56:17.473Z,996.71
2023-03-27T03:56:49.566Z,996.61
2023-03-27T03:57:21.511Z,996.71
2023-03-27T03:57:53.360Z,996.71
2023-03-27T03:58:34.450Z,996.61
2023-03-27T03:58:57.463Z,996.61
2023-03-27T03:59:29.636Z,996.61
2023-03-27T04:00:01.546Z,996.61
2023-03-27T04:00:33.327Z,996.61
2023-03-27T04:01:05.329Z,996.61
2023-03-27T04:01:37.414Z,996.71
2023-03-27T04:02:09.233Z,996.71
2023-03-27T04:02:41.426Z,996.61
2023-03-27T04:03:13.363Z,996.61
2023-03-27T04:03:45.331Z,996.92
2023-03-27T04:04:17.097Z,996.92
2023-03-27T04:04:49.155Z,996.92
2023-03-27T04:05:21.310Z,996.92
2023-03-27T04:05:53.217Z,996.92
2023-03-27T04:06:25.024Z,997.02
2023-03-27T04:06:57.498Z,997.02
2023-03-27T04:07:29.106Z,996.92
2023-03-27T04:08:01.253Z,996.92
2023-03-27T04:08:33.606Z,996.71
2023-03-27T04:09:04.936Z,996.71
2023-03-27T04:09:37.013Z,996.82
2023-03-27T04:10:09.116Z,996.82
2023-03-27T04:10:40.907Z,997.02
2023-03-27T04:11:12.854Z,997.02
2023-03-27T04:11:44.863Z,996.92
2023-03-27T04:12:16.958Z,996.92
2023-03-27T04:12:48.764Z,996.92
2023-03-27T04:13:20.935Z,997.02
2023-03-27T04:13:52.834Z,997.02
2023-03-27T04:14:24.853Z,997.02
2023-03-27T04:14:56.657Z,997.02
2023-03-27T04:15:28.871Z,996.92
2023-03-27T04:16:05.920Z,996.92
2023-03-27T04:16:33.567Z,997.02
2023-03-27T04:17:04.668Z,997.02
2023-03-27T04:17:36.922Z,997.02
2023-03-27T04:18:08.775Z,997.02
2023-03-27T04:18:41.029Z,997.02
2023-03-27T04:19:12.476Z,997.02
2023-03-27T04:19:44.687Z,996.92
2023-03-27T04:20:16.552Z,996.92
2023-03-27T04:20:48.537Z,997.02
2023-03-27T04:21:20.440Z,997.02
2023-03-27T04:21:52.407Z,997.02
2023-03-27T04:22:24.400Z,997.02
2023-03-27T04:22:56.460Z,997.02
2023-03-27T04:23:28.290Z,997.02
2023-03-27T04:24:00.337Z,997.02
2023-03-27T04:24:32.337Z,997.02
2023-03-27T04:25:04.376Z,997.02
2023-03-27T04:25:36.211Z,996.92
2023-03-27T04:26:08.341Z,996.92
2023-03-27T04:26:40.266Z,997.12
2023-03-27T04:27:12.297Z,997.12
2023-03-27T04:27:44.133Z,997.12
2023-03-27T04:28:16.138Z,997.12
2023-03-27T04:28:48.174Z,997.02
2023-03-27T04:29:20.187Z,997.22
2023-03-27T04:29:52.006Z,997.22
2023-03-27T04:30:24.134Z,997.22
2023-03-27T04:30:56.188Z,997.22
2023-03-27T04:31:28.167Z,997.02
2023-03-27T04:31:59.981Z,997.02
2023-03-27T04:32:31.950Z,997.22
2023-03-27T04:33:04.047Z,997.22
2023-03-27T04:33:36.036Z,997.32
2023-03-27T04:34:07.925Z,997.32
2023-03-27T04:34:39.865Z,997.32
2023-03-27T04:35:11.904Z,997.32
2023-03-27T04:35:43.971Z,997.32
2023-03-27T04:36:15.898Z,997.32
2023-03-27T04:36:47.798Z,997.22
2023-03-27T04:37:23.078Z,997.43
2023-03-27T04:37:51.843Z,997.43
2023-03-27T04:38:23.827Z,997.32
2023-03-27T04:38:55.721Z,997.32
2023-03-27T04:39:27.764Z,997.32
2023-03-27T04:39:59.739Z,997.32
2023-03-27T04:40:31.566Z,997.53
2023-03-27T04:41:03.611Z,997.53
2023-03-27T04:41:35.653Z,997.32
2023-03-27T04:42:07.747Z,997.32
2023-03-27T04:42:39.682Z,997.43
2023-03-27T04:43:11.627Z,997.43
2023-03-27T04:43:43.563Z,997.53
2023-03-27T04:44:15.596Z,997.53
2023-03-27T04:44:47.385Z,997.43
2023-03-27T04:45:19.511Z,997.43
2023-03-27T04:45:51.571Z,997.43
2023-03-27T04:46:23.493Z,997.22
2023-03-27T04:46:55.565Z,997.22
2023-03-27T04:47:27.350Z,997.32
2023-03-27T04:47:59.379Z,997.32
2023-03-27T04:48:31.382Z,997.43
2023-03-27T04:49:03.398Z,997.43
2023-03-27T04:49:35.255Z,997.32
2023-03-27T04:50:07.280Z,997.32
2023-03-27T04:50:39.279Z,997.32
2023-03-27T04:51:11.335Z,997.32
2023-03-27T04:51:43.116Z,997.32
2023-03-27T04:52:15.153Z,997.32
2023-03-27T04:52:48.487Z,997.53
2023-03-27T04:53:19.241Z,997.32
2023-03-27T04:53:51.258Z,997.32
2023-03-27T04:54:23.066Z,997.43
2023-03-27T04:54:55.108Z,997.43
2023-03-27T04:55:27.157Z,997.63
2023-03-27T04:55:59.135Z,997.63
2023-03-27T04:56:31.190Z,997.43
2023-03-27T04:57:03.054Z,997.43
2023-03-27T04:57:35.197Z,997.43
2023-03-27T04:58:06.919Z,997.43
2023-03-27T04:58:38.981Z,997.53
2023-03-27T04:59:11.088Z,997.53
2023-03-27T04:59:42.985Z,997.53
2023-03-27T05:00:15.114Z,997.53
2023-03-27T05:00:46.884Z,997.53
2023-03-27T05:01:18.914Z,997.63
2023-03-27T05:01:51.083Z,997.63
2023-03-27T05:02:22.766Z,997.53
2023-03-27T05:02:54.749Z,997.53
2023-03-27T05:03:26.791Z,997.73
2023-03-27T05:03:58.785Z,997.73
2023-03-27T05:04:30.820Z,997.83
2023-03-27T05:05:02.670Z,997.83
2023-03-27T05:05:34.711Z,997.53
2023-03-27T05:06:06.725Z,997.53
2023-03-27T05:06:40.461Z,997.63
2023-03-27T05:07:10.816Z,997.63
2023-03-27T05:07:42.568Z,997.73
2023-03-27T05:08:14.613Z,997.73
2023-03-27T05:08:46.437Z,997.63
2023-03-27T05:09:18.491Z,997.63
2023-03-27T05:09:50.628Z,997.63
2023-03-27T05:10:22.545Z,997.63
2023-03-27T05:10:54.534Z,997.63
2023-03-27T05:11:26.386Z,997.63
2023-03-27T05:11:58.377Z,997.63
2023-03-27T05:12:31.122Z,997.63
2023-03-27T05:13:02.260Z,997.63
2023-03-27T05:13:34.316Z,997.73
2023-03-27T05:14:06.399Z,997.73
2023-03-27T05:14:38.328Z,997.63
2023-03-27T05:15:10.541Z,997.63
2023-03-27T05:15:42.197Z,997.83
2023-03-27T05:16:14.252Z,997.83
2023-03-27T05:16:46.284Z,997.83
2023-03-27T05:17:18.058Z,997.83
2023-03-27T05:17:50.144Z,997.83
2023-03-27T05:18:22.113Z,997.93
2023-03-27T05:18:54.140Z,997.93
2023-03-27T05:19:26.809Z,997.73
2023-03-27T05:19:57.996Z,997.73
2023-03-27T05:20:30.045Z,997.93
2023-03-27T05:21:02.041Z,997.93
2023-03-27T05:21:34.392Z,997.83
2023-03-27T05:22:05.916Z,997.83
2023-03-27T05:22:37.965Z,997.83
2023-03-27T05:23:09.991Z,997.83
2023-03-27T05:23:41.808Z,998.03
2023-03-27T05:24:13.847Z,998.03
2023-03-27T05:24:45.865Z,997.73
2023-03-27T05:25:17.884Z,997.73
2023-03-27T05:25:59.269Z,997.73
2023-03-27T05:26:21.824Z,997.83
2023-03-27T05:26:53.869Z,997.83
2023-03-27T05:27:25.790Z,998.03
2023-03-27T05:27:57.637Z,998.03
2023-03-27T05:28:29.642Z,998.03
2023-03-27T05:29:01.655Z,998.03
2023-03-27T05:29:46.977Z,997.83
2023-03-27T05:30:05.834Z,997.83
2023-03-27T05:30:37.791Z,998.14
2023-03-27T05:31:09.615Z,998.14
2023-03-27T05:31:41.616Z,998.14
2023-03-27T05:32:13.427Z,998.14
2023-03-27T05:32:45.517Z,998.14
2023-03-27T05:33:17.494Z,998.14
2023-03-27T05:33:49.609Z,998.03
2023-03-27T05:34:21.439Z,998.03
2023-03-27T05:34:53.404Z,998.03
2023-03-27T05:35:25.445Z,998.03
2023-03-27T05:35:57.615Z,998.03
2023-03-27T05:36:29.254Z,998.03
2023-03-27T05:37:01.359Z,998.03
2023-03-27T05:37:33.758Z,998.03
2023-03-27T05:38:05.393Z,998.03
2023-03-27T05:38:37.330Z,998.24
2023-03-27T05:39:09.189Z,998.24
2023-03-27T05:39:41.321Z,998.03
2023-03-27T05:40:13.244Z,998.03
2023-03-27T05:40:45.270Z,998.14
2023-03-27T05:41:17.067Z,998.14
2023-03-27T05:41:49.206Z,998.24
2023-03-27T05:42:21.319Z,998.14
2023-03-27T05:42:53.150Z,998.14
2023-03-27T05:43:25.138Z,998.14
2023-03-27T05:43:57.096Z,998.14
2023-03-27T05:44:29.073Z,998.24
2023-03-27T05:45:01.543Z,998.24
2023-03-27T05:45:32.934Z,998.24
2023-03-27T05:46:05.053Z,998.24
2023-03-27T05:46:36.980Z,998.14
2023-03-27T05:47:08.990Z,998.14
2023-03-27T05:47:41.100Z,998.24
2023-03-27T05:48:12.827Z,998.24
2023-03-27T05:48:44.937Z,998.34
2023-03-27T05:49:16.866Z,998.34
2023-03-27T05:49:48.717Z,998.24
2023-03-27T05:50:20.925Z,998.24
2023-03-27T05:50:52.758Z,998.24
2023-03-27T05:51:24.815Z,998.34
2023-03-27T05:51:56.614Z,998.34
2023-03-27T05:52:28.942Z,998.34
2023-03-27T05:53:00.800Z,998.34
2023-03-27T05:53:32.731Z,998.34
2023-03-27T05:54:04.603Z,998.34
2023-03-27T05:54:36.567Z,998.34
2023-03-27T05:55:08.605Z,998.34
2023-03-27T05:55:40.837Z,998.34
2023-03-27T05:56:12.495Z,998.34
2023-03-27T05:56:44.527Z,998.24
2023-03-27T05:57:16.597Z,998.24
2023-03-27T05:57:48.525Z,998.44
2023-03-27T05:58:20.449Z,998.44
2023-03-27T05:58:52.370Z,998.44
2023-03-27T05:59:24.431Z,998.44
2023-03-27T05:59:56.443Z,998.44
2023-03-27T06:00:28.378Z,998.34
2023-03-27T06:01:00.351Z,998.34
2023-03-27T06:01:32.339Z,998.34
2023-03-27T06:02:04.509Z,998.34
2023-03-27T06:02:36.229Z,998.24
2023-03-27T06:03:08.323Z,998.24
2023-03-27T06:03:40.401Z,998.44
2023-03-27T06:04:12.299Z,998.44
2023-03-27T06:04:44.164Z,998.34
2023-03-27T06:05:16.125Z,998.34
2023-03-27T06:05:48.223Z,998.44
2023-03-27T06:06:20.165Z,998.44
2023-03-27T06:06:52.004Z,998.44
2023-03-27T06:07:24.198Z,998.44
2023-03-27T06:07:56.045Z,998.44
2023-03-27T06:08:28.096Z,998.51
2023-03-27T06:08:59.885Z,998.51
2023-03-27T06:09:32.019Z,998.71
2023-03-27T06:10:04.025Z,998.71
2023-03-27T06:10:35.980Z,998.51
2023-03-27T06:11:07.851Z,998.51
2023-03-27T06:11:39.835Z,998.51
2023-03-27T06:12:11.851Z,998.51
2023-03-27T06:12:43.923Z,998.51
2023-03-27T06:13:15.713Z,998.51
2023-03-27T06:13:47.766Z,998.51
2023-03-27T06:14:19.791Z,998.61
2023-03-27T06:14:51.864Z,998.61
2023-03-27T06:15:23.719Z,998.61
2023-03-27T06:15:55.903Z,998.61
2023-03-27T06:16:27.745Z,998.51
2023-03-27T06:16:59.725Z,998.51
2023-03-27T06:17:31.625Z,998.61
2023-03-27T06:18:03.655Z,998.61
2023-03-27T06:18:35.567Z,998.51
2023-03-27T06:19:07.695Z,998.51
2023-03-27T06:19:39.437Z,998.44
2023-03-27T06:20:11.497Z,998.44
2023-03-27T06:20:43.497Z,998.51
2023-03-27T06:21:15.523Z,998.51
2023-03-27T06:21:47.531Z,998.51
2023-03-27T06:22:19.387Z,998.51
2023-03-27T06:22:51.425Z,998.51
2023-03-27T06:23:23.490Z,998.51
2023-03-27T06:23:55.443Z,998.51
2023-03-27T06:24:27.280Z,998.51
2023-03-27T06:24:59.345Z,998.51
2023-03-27T06:25:31.611Z,998.61
2023-03-27T06:26:03.383Z,998.61
2023-03-27T06:26:35.228Z,998.61
2023-03-27T06:27:08.629Z,998.61
2023-03-27T06:27:39.257Z,998.81
2023-03-27T06:28:11.422Z,998.81
2023-03-27T06:28:43.088Z,998.71
2023-03-27T06:29:15.131Z,998.71
2023-03-27T06:29:47.154Z,998.81
2023-03-27T06:30:19.442Z,998.92
2023-03-27T06:30:51.486Z,998.92
2023-03-27T06:31:23.041Z,998.92
2023-03-27T06:31:55.074Z,998.92
2023-03-27T06:32:27.743Z,998.92
2023-03-27T06:32:59.146Z,998.92
2023-03-27T06:33:31.084Z,998.71
2023-03-27T06:34:03.034Z,998.71
2023-03-27T06:34:35.031Z,998.92
2023-03-27T06:35:07.449Z,998.92
2023-03-27T06:35:38.936Z,998.81
2023-03-27T06:36:11.240Z,998.81
2023-03-27T06:36:42.883Z,998.81
2023-03-27T06:37:14.720Z,998.81
2023-03-27T06:37:48.309Z,998.81
2023-03-27T06:38:18.767Z,998.92
2023-03-27T06:38:51.217Z,998.92